sensor_id;sensor_type;location;lat;lon;timestamp;P1;durP1;ratioP1;P2;durP2;ratioP2
67602;SDS011;54417;47.454;18.918;2024-03-02T00:01:17;33.70;;;19.05;;
67602;SDS011;54417;47.454;18.918;2024-03-02T00:06:26;38.92;;;19.98;;
67602;SDS011;54417;47.454;18.918;2024-03-02T00:11:31;39.33;;;19.08;;
67602;SDS011;54417;47.454;18.918;2024-03-02T00:16:43;40.70;;;19.60;;
67602;SDS011;54417;47.454;18.918;2024-03-02T00:21:52;33.45;;;19.38;;
67602;SDS011;54417;47.454;18.918;2024-03-02T00:26:57;33.22;;;19.65;;
67602;SDS011;54417;47.454;18.918;2024-03-02T00:32:01;30.58;;;18.30;;
67602;SDS011;54417;47.454;18.918;2024-03-02T00:37:10;39.08;;;18.08;;
67602;SDS011;54417;47.454;18.918;2024-03-02T00:42:21;41.60;;;19.50;;
67602;SDS011;54417;47.454;18.918;2024-03-02T00:47:30;32.13;;;19.88;;
67602;SDS011;54417;47.454;18.918;2024-03-02T00:52:40;43.10;;;20.17;;
67602;SDS011;54417;47.454;18.918;2024-03-02T00:57:50;34.53;;;19.83;;
67602;SDS011;54417;47.454;18.918;2024-03-02T01:02:54;35.90;;;19.00;;
67602;SDS011;54417;47.454;18.918;2024-03-02T01:08:03;35.35;;;19.52;;
67602;SDS011;54417;47.454;18.918;2024-03-02T01:13:13;30.10;;;18.60;;
67602;SDS011;54417;47.454;18.918;2024-03-02T01:18:22;31.88;;;16.95;;
67602;SDS011;54417;47.454;18.918;2024-03-02T01:23:26;34.65;;;17.73;;
67602;SDS011;54417;47.454;18.918;2024-03-02T01:28:36;30.33;;;17.48;;
67602;SDS011;54417;47.454;18.918;2024-03-02T01:33:45;30.88;;;16.80;;
67602;SDS011;54417;47.454;18.918;2024-03-02T01:38:53;31.02;;;17.38;;
67602;SDS011;54417;47.454;18.918;2024-03-02T01:44:04;29.85;;;18.23;;
67602;SDS011;54417;47.454;18.918;2024-03-02T01:49:12;32.90;;;17.13;;
67602;SDS011;54417;47.454;18.918;2024-03-02T01:54:21;28.45;;;16.80;;
67602;SDS011;54417;47.454;18.918;2024-03-02T01:59:32;33.17;;;17.33;;
67602;SDS011;54417;47.454;18.918;2024-03-02T02:04:40;38.05;;;17.33;;
67602;SDS011;54417;47.454;18.918;2024-03-02T02:09:49;32.58;;;18.20;;
67602;SDS011;54417;47.454;18.918;2024-03-02T02:14:59;30.92;;;16.83;;
67602;SDS011;54417;47.454;18.918;2024-03-02T02:20:09;34.45;;;17.85;;
67602;SDS011;54417;47.454;18.918;2024-03-02T02:25:19;28.20;;;17.35;;
67602;SDS011;54417;47.454;18.918;2024-03-02T02:30:28;27.52;;;17.92;;
67602;SDS011;54417;47.454;18.918;2024-03-02T02:35:38;29.23;;;17.65;;
67602;SDS011;54417;47.454;18.918;2024-03-02T02:40:43;35.00;;;17.38;;
67602;SDS011;54417;47.454;18.918;2024-03-02T02:45:47;30.75;;;16.88;;
67602;SDS011;54417;47.454;18.918;2024-03-02T02:50:51;29.25;;;17.45;;
67602;SDS011;54417;47.454;18.918;2024-03-02T02:55:56;35.60;;;18.48;;
67602;SDS011;54417;47.454;18.918;2024-03-02T03:00:59;29.98;;;17.27;;
67602;SDS011;54417;47.454;18.918;2024-03-02T03:06:08;33.42;;;16.73;;
67602;SDS011;54417;47.454;18.918;2024-03-02T03:11:18;26.60;;;16.63;;
67602;SDS011;54417;47.454;18.918;2024-03-02T03:16:23;35.95;;;17.02;;
67602;SDS011;54417;47.454;18.918;2024-03-02T03:21:32;32.42;;;17.77;;
67602;SDS011;54417;47.454;18.918;2024-03-02T03:26:50;28.58;;;17.27;;
67602;SDS011;54417;47.454;18.918;2024-03-02T03:31:58;36.95;;;16.98;;
67602;SDS011;54417;47.454;18.918;2024-03-02T03:37:02;31.38;;;17.90;;
67602;SDS011;54417;47.454;18.918;2024-03-02T03:42:12;30.38;;;17.35;;
67602;SDS011;54417;47.454;18.918;2024-03-02T03:47:16;30.95;;;16.98;;
67602;SDS011;54417;47.454;18.918;2024-03-02T03:52:25;28.08;;;16.90;;
67602;SDS011;54417;47.454;18.918;2024-03-02T03:57:35;28.20;;;16.50;;
67602;SDS011;54417;47.454;18.918;2024-03-02T04:02:43;31.83;;;16.48;;
67602;SDS011;54417;47.454;18.918;2024-03-02T04:07:47;38.80;;;20.05;;
67602;SDS011;54417;47.454;18.918;2024-03-02T04:12:52;37.67;;;19.73;;
67602;SDS011;54417;47.454;18.918;2024-03-02T04:17:56;45.25;;;19.25;;
67602;SDS011;54417;47.454;18.918;2024-03-02T04:23:05;33.08;;;19.77;;
67602;SDS011;54417;47.454;18.918;2024-03-02T04:28:16;34.13;;;19.30;;
67602;SDS011;54417;47.454;18.918;2024-03-02T04:33:25;33.60;;;18.02;;
67602;SDS011;54417;47.454;18.918;2024-03-02T04:38:34;35.53;;;19.20;;
67602;SDS011;54417;47.454;18.918;2024-03-02T04:43:44;40.33;;;19.92;;
67602;SDS011;54417;47.454;18.918;2024-03-02T04:48:52;36.88;;;20.30;;
67602;SDS011;54417;47.454;18.918;2024-03-02T04:54:04;38.63;;;20.85;;
67602;SDS011;54417;47.454;18.918;2024-03-02T04:59:14;35.75;;;19.38;;
67602;SDS011;54417;47.454;18.918;2024-03-02T05:04:18;34.58;;;20.60;;
67602;SDS011;54417;47.454;18.918;2024-03-02T05:09:27;37.30;;;20.05;;
67602;SDS011;54417;47.454;18.918;2024-03-02T05:14:32;39.63;;;21.33;;
67602;SDS011;54417;47.454;18.918;2024-03-02T05:19:40;39.10;;;20.60;;
67602;SDS011;54417;47.454;18.918;2024-03-02T05:24:49;34.50;;;19.90;;
67602;SDS011;54417;47.454;18.918;2024-03-02T05:29:54;34.22;;;20.65;;
67602;SDS011;54417;47.454;18.918;2024-03-02T05:35:03;38.42;;;21.75;;
67602;SDS011;54417;47.454;18.918;2024-03-02T05:40:13;36.63;;;21.98;;
67602;SDS011;54417;47.454;18.918;2024-03-02T05:45:23;41.83;;;22.75;;
67602;SDS011;54417;47.454;18.918;2024-03-02T05:50:27;41.80;;;20.90;;
67602;SDS011;54417;47.454;18.918;2024-03-02T05:55:30;43.97;;;23.70;;
67602;SDS011;54417;47.454;18.918;2024-03-02T06:00:41;38.95;;;21.98;;
67602;SDS011;54417;47.454;18.918;2024-03-02T06:05:49;39.78;;;23.45;;
67602;SDS011;54417;47.454;18.918;2024-03-02T06:10:59;45.97;;;24.25;;
67602;SDS011;54417;47.454;18.918;2024-03-02T06:16:09;40.58;;;21.75;;
67602;SDS011;54417;47.454;18.918;2024-03-02T06:21:12;38.00;;;22.27;;
67602;SDS011;54417;47.454;18.918;2024-03-02T06:26:20;41.38;;;24.35;;
67602;SDS011;54417;47.454;18.918;2024-03-02T06:31:33;43.85;;;23.77;;
67602;SDS011;54417;47.454;18.918;2024-03-02T06:36:42;41.67;;;23.42;;
67602;SDS011;54417;47.454;18.918;2024-03-02T06:41:46;39.03;;;23.02;;
67602;SDS011;54417;47.454;18.918;2024-03-02T06:46:56;42.88;;;23.45;;
67602;SDS011;54417;47.454;18.918;2024-03-02T06:52:05;42.90;;;24.42;;
67602;SDS011;54417;47.454;18.918;2024-03-02T06:57:12;45.30;;;25.35;;
67602;SDS011;54417;47.454;18.918;2024-03-02T07:02:17;42.95;;;24.27;;
67602;SDS011;54417;47.454;18.918;2024-03-02T07:07:26;44.05;;;23.33;;
67602;SDS011;54417;47.454;18.918;2024-03-02T07:12:34;38.90;;;23.90;;
67602;SDS011;54417;47.454;18.918;2024-03-02T07:17:45;39.35;;;23.35;;
67602;SDS011;54417;47.454;18.918;2024-03-02T07:22:53;37.38;;;23.15;;
67602;SDS011;54417;47.454;18.918;2024-03-02T07:28:02;44.67;;;24.75;;
67602;SDS011;54417;47.454;18.918;2024-03-02T07:33:12;40.10;;;24.85;;
67602;SDS011;54417;47.454;18.918;2024-03-02T07:38:19;41.78;;;26.00;;
67602;SDS011;54417;47.454;18.918;2024-03-02T07:43:28;40.70;;;24.00;;
67602;SDS011;54417;47.454;18.918;2024-03-02T07:48:38;42.05;;;23.85;;
67602;SDS011;54417;47.454;18.918;2024-03-02T07:53:42;41.00;;;22.67;;
67602;SDS011;54417;47.454;18.918;2024-03-02T07:58:53;37.78;;;21.95;;
67602;SDS011;54417;47.454;18.918;2024-03-02T08:04:06;40.85;;;23.58;;
67602;SDS011;54417;47.454;18.918;2024-03-02T08:09:10;34.55;;;21.80;;
67602;SDS011;54417;47.454;18.918;2024-03-02T08:14:19;43.03;;;24.45;;
67602;SDS011;54417;47.454;18.918;2024-03-02T08:19:29;37.40;;;21.80;;
67602;SDS011;54417;47.454;18.918;2024-03-02T08:24:38;38.08;;;23.20;;
67602;SDS011;54417;47.454;18.918;2024-03-02T08:29:49;39.95;;;25.35;;
67602;SDS011;54417;47.454;18.918;2024-03-02T08:34:54;36.90;;;22.02;;
67602;SDS011;54417;47.454;18.918;2024-03-02T08:39:58;39.63;;;23.60;;
67602;SDS011;54417;47.454;18.918;2024-03-02T08:45:07;42.65;;;23.92;;
67602;SDS011;54417;47.454;18.918;2024-03-02T08:50:18;38.83;;;22.60;;
67602;SDS011;54417;47.454;18.918;2024-03-02T08:55:27;39.25;;;22.10;;
67602;SDS011;54417;47.454;18.918;2024-03-02T09:00:36;41.20;;;23.75;;
67602;SDS011;54417;47.454;18.918;2024-03-02T09:05:46;39.58;;;21.58;;
67602;SDS011;54417;47.454;18.918;2024-03-02T09:10:55;38.38;;;21.92;;
67602;SDS011;54417;47.454;18.918;2024-03-02T09:15:59;33.08;;;20.30;;
67602;SDS011;54417;47.454;18.918;2024-03-02T09:21:05;34.95;;;20.90;;
67602;SDS011;54417;47.454;18.918;2024-03-02T09:26:14;31.27;;;18.85;;
67602;SDS011;54417;47.454;18.918;2024-03-02T09:31:21;33.95;;;19.35;;
67602;SDS011;54417;47.454;18.918;2024-03-02T09:36:30;34.17;;;18.30;;
67602;SDS011;54417;47.454;18.918;2024-03-02T09:41:38;29.15;;;17.70;;
67602;SDS011;54417;47.454;18.918;2024-03-02T09:46:48;30.98;;;17.48;;
67602;SDS011;54417;47.454;18.918;2024-03-02T09:51:58;28.83;;;16.58;;
67602;SDS011;54417;47.454;18.918;2024-03-02T09:57:07;31.43;;;17.60;;
67602;SDS011;54417;47.454;18.918;2024-03-02T10:02:16;26.13;;;17.63;;
67602;SDS011;54417;47.454;18.918;2024-03-02T10:07:22;26.98;;;16.77;;
67602;SDS011;54417;47.454;18.918;2024-03-02T10:12:31;33.97;;;17.40;;
67602;SDS011;54417;47.454;18.918;2024-03-02T10:17:39;27.40;;;18.08;;
67602;SDS011;54417;47.454;18.918;2024-03-02T10:22:49;28.13;;;15.52;;
67602;SDS011;54417;47.454;18.918;2024-03-02T10:27:58;25.40;;;16.42;;
67602;SDS011;54417;47.454;18.918;2024-03-02T10:33:03;26.33;;;15.30;;
67602;SDS011;54417;47.454;18.918;2024-03-02T10:38:10;22.60;;;15.27;;
67602;SDS011;54417;47.454;18.918;2024-03-02T10:43:19;21.42;;;15.05;;
67602;SDS011;54417;47.454;18.918;2024-03-02T10:48:29;24.77;;;15.93;;
67602;SDS011;54417;47.454;18.918;2024-03-02T10:53:41;23.43;;;14.77;;
67602;SDS011;54417;47.454;18.918;2024-03-02T10:58:50;26.70;;;15.93;;
67602;SDS011;54417;47.454;18.918;2024-03-02T11:04:01;25.95;;;13.77;;
67602;SDS011;54417;47.454;18.918;2024-03-02T11:09:14;21.33;;;14.02;;
67602;SDS011;54417;47.454;18.918;2024-03-02T11:14:24;26.00;;;14.05;;
67602;SDS011;54417;47.454;18.918;2024-03-02T11:19:33;21.60;;;13.75;;
67602;SDS011;54417;47.454;18.918;2024-03-02T11:24:52;18.13;;;11.95;;
67602;SDS011;54417;47.454;18.918;2024-03-02T11:30:00;15.45;;;11.10;;
67602;SDS011;54417;47.454;18.918;2024-03-02T11:35:10;15.52;;;10.90;;
67602;SDS011;54417;47.454;18.918;2024-03-02T11:40:15;18.50;;;11.52;;
67602;SDS011;54417;47.454;18.918;2024-03-02T11:45:30;18.27;;;10.75;;
67602;SDS011;54417;47.454;18.918;2024-03-02T11:50:41;12.32;;;8.95;;
67602;SDS011;54417;47.454;18.918;2024-03-02T11:55:52;13.50;;;9.00;;
67602;SDS011;54417;47.454;18.918;2024-03-02T12:00:58;10.95;;;7.97;;
67602;SDS011;54417;47.454;18.918;2024-03-02T12:06:02;16.00;;;7.57;;
67602;SDS011;54417;47.454;18.918;2024-03-02T12:11:13;15.05;;;8.50;;
67602;SDS011;54417;47.454;18.918;2024-03-02T12:16:22;12.50;;;8.88;;
67602;SDS011;54417;47.454;18.918;2024-03-02T12:21:27;9.82;;;8.25;;
67602;SDS011;54417;47.454;18.918;2024-03-02T12:26:32;10.43;;;8.13;;
67602;SDS011;54417;47.454;18.918;2024-03-02T12:31:41;10.85;;;8.73;;
67602;SDS011;54417;47.454;18.918;2024-03-02T12:36:45;12.23;;;9.60;;
67602;SDS011;54417;47.454;18.918;2024-03-02T12:41:53;20.70;;;11.15;;
67602;SDS011;54417;47.454;18.918;2024-03-02T12:46:57;25.13;;;14.85;;
67602;SDS011;54417;47.454;18.918;2024-03-02T12:52:03;38.20;;;19.60;;
67602;SDS011;54417;47.454;18.918;2024-03-02T12:57:17;54.83;;;22.10;;
67602;SDS011;54417;47.454;18.918;2024-03-02T13:02:21;25.45;;;14.73;;
67602;SDS011;54417;47.454;18.918;2024-03-02T13:07:30;37.28;;;19.80;;
67602;SDS011;54417;47.454;18.918;2024-03-02T13:12:42;18.98;;;12.32;;
67602;SDS011;54417;47.454;18.918;2024-03-02T13:17:45;30.00;;;15.95;;
67602;SDS011;54417;47.454;18.918;2024-03-02T13:22:54;20.63;;;13.32;;
67602;SDS011;54417;47.454;18.918;2024-03-02T13:28:05;29.70;;;16.02;;
67602;SDS011;54417;47.454;18.918;2024-03-02T13:33:10;23.85;;;14.48;;
67602;SDS011;54417;47.454;18.918;2024-03-02T13:38:19;31.02;;;17.60;;
67602;SDS011;54417;47.454;18.918;2024-03-02T13:43:30;35.15;;;20.80;;
67602;SDS011;54417;47.454;18.918;2024-03-02T13:48:34;24.58;;;15.30;;
67602;SDS011;54417;47.454;18.918;2024-03-02T13:53:43;16.63;;;11.77;;
67602;SDS011;54417;47.454;18.918;2024-03-02T13:58:53;22.85;;;12.48;;
67602;SDS011;54417;47.454;18.918;2024-03-02T14:04:02;22.73;;;14.15;;
67602;SDS011;54417;47.454;18.918;2024-03-02T14:09:11;25.20;;;12.82;;
67602;SDS011;54417;47.454;18.918;2024-03-02T14:14:21;24.50;;;13.20;;
67602;SDS011;54417;47.454;18.918;2024-03-02T14:19:26;24.30;;;14.15;;
67602;SDS011;54417;47.454;18.918;2024-03-02T14:24:35;24.73;;;15.00;;
67602;SDS011;54417;47.454;18.918;2024-03-02T14:29:40;23.60;;;13.20;;
67602;SDS011;54417;47.454;18.918;2024-03-02T14:34:49;23.40;;;13.90;;
67602;SDS011;54417;47.454;18.918;2024-03-02T14:39:58;28.73;;;14.23;;
67602;SDS011;54417;47.454;18.918;2024-03-02T14:45:04;51.40;;;25.65;;
67602;SDS011;54417;47.454;18.918;2024-03-02T14:50:13;76.43;;;41.55;;
67602;SDS011;54417;47.454;18.918;2024-03-02T14:55:24;56.93;;;32.03;;
67602;SDS011;54417;47.454;18.918;2024-03-02T15:00:34;39.58;;;20.17;;
67602;SDS011;54417;47.454;18.918;2024-03-02T15:05:42;38.22;;;18.35;;
67602;SDS011;54417;47.454;18.918;2024-03-02T15:10:47;38.88;;;19.50;;
67602;SDS011;54417;47.454;18.918;2024-03-02T15:15:58;34.65;;;18.83;;
67602;SDS011;54417;47.454;18.918;2024-03-02T15:21:02;36.22;;;20.63;;
67602;SDS011;54417;47.454;18.918;2024-03-02T15:26:11;49.42;;;20.63;;
67602;SDS011;54417;47.454;18.918;2024-03-02T15:31:21;36.17;;;20.63;;
67602;SDS011;54417;47.454;18.918;2024-03-02T15:36:30;41.25;;;21.13;;
67602;SDS011;54417;47.454;18.918;2024-03-02T15:41:39;35.63;;;21.15;;
67602;SDS011;54417;47.454;18.918;2024-03-02T15:46:44;39.92;;;21.15;;
67602;SDS011;54417;47.454;18.918;2024-03-02T15:51:53;41.05;;;22.92;;
67602;SDS011;54417;47.454;18.918;2024-03-02T15:56:57;47.50;;;25.73;;
67602;SDS011;54417;47.454;18.918;2024-03-02T16:02:02;49.30;;;25.33;;
67602;SDS011;54417;47.454;18.918;2024-03-02T16:07:12;47.97;;;24.67;;
67602;SDS011;54417;47.454;18.918;2024-03-02T16:12:16;53.03;;;26.88;;
67602;SDS011;54417;47.454;18.918;2024-03-02T16:17:26;53.75;;;28.52;;
67602;SDS011;54417;47.454;18.918;2024-03-02T16:22:30;59.85;;;31.42;;
67602;SDS011;54417;47.454;18.918;2024-03-02T16:27:39;55.90;;;28.58;;
67602;SDS011;54417;47.454;18.918;2024-03-02T16:32:52;52.67;;;26.65;;
67602;SDS011;54417;47.454;18.918;2024-03-02T16:37:56;51.67;;;26.75;;
67602;SDS011;54417;47.454;18.918;2024-03-02T16:43:04;55.40;;;27.65;;
67602;SDS011;54417;47.454;18.918;2024-03-02T16:48:10;49.85;;;25.35;;
67602;SDS011;54417;47.454;18.918;2024-03-02T16:53:14;51.75;;;24.98;;
67602;SDS011;54417;47.454;18.918;2024-03-02T16:58:24;51.33;;;25.23;;
67602;SDS011;54417;47.454;18.918;2024-03-02T17:03:34;51.20;;;25.35;;
67602;SDS011;54417;47.454;18.918;2024-03-02T17:08:43;45.22;;;25.88;;
67602;SDS011;54417;47.454;18.918;2024-03-02T17:13:47;50.70;;;26.92;;
67602;SDS011;54417;47.454;18.918;2024-03-02T17:18:55;55.88;;;29.40;;
67602;SDS011;54417;47.454;18.918;2024-03-02T17:24:00;53.13;;;27.88;;
67602;SDS011;54417;47.454;18.918;2024-03-02T17:29:09;59.22;;;28.05;;
67602;SDS011;54417;47.454;18.918;2024-03-02T17:34:20;52.28;;;27.13;;
67602;SDS011;54417;47.454;18.918;2024-03-02T17:39:31;61.00;;;28.90;;
67602;SDS011;54417;47.454;18.918;2024-03-02T17:44:35;49.97;;;25.77;;
67602;SDS011;54417;47.454;18.918;2024-03-02T17:49:45;48.85;;;24.90;;
67602;SDS011;54417;47.454;18.918;2024-03-02T17:54:54;43.03;;;24.08;;
67602;SDS011;54417;47.454;18.918;2024-03-02T17:59:58;43.75;;;24.08;;
67602;SDS011;54417;47.454;18.918;2024-03-02T18:05:09;43.72;;;22.85;;
67602;SDS011;54417;47.454;18.918;2024-03-02T18:10:13;42.47;;;23.60;;
67602;SDS011;54417;47.454;18.918;2024-03-02T18:15:16;40.67;;;22.23;;
67602;SDS011;54417;47.454;18.918;2024-03-02T18:20:26;40.25;;;21.92;;
67602;SDS011;54417;47.454;18.918;2024-03-02T18:25:35;40.28;;;21.02;;
67602;SDS011;54417;47.454;18.918;2024-03-02T18:30:39;32.67;;;19.75;;
67602;SDS011;54417;47.454;18.918;2024-03-02T18:35:49;35.90;;;21.05;;
67602;SDS011;54417;47.454;18.918;2024-03-02T18:40:58;35.83;;;21.05;;
67602;SDS011;54417;47.454;18.918;2024-03-02T18:46:07;33.67;;;20.98;;
67602;SDS011;54417;47.454;18.918;2024-03-02T18:51:21;34.00;;;20.00;;
67602;SDS011;54417;47.454;18.918;2024-03-02T18:56:25;34.45;;;19.10;;
67602;SDS011;54417;47.454;18.918;2024-03-02T19:01:29;30.65;;;18.50;;
67602;SDS011;54417;47.454;18.918;2024-03-02T19:06:39;35.15;;;20.13;;
67602;SDS011;54417;47.454;18.918;2024-03-02T19:11:42;30.08;;;17.88;;
67602;SDS011;54417;47.454;18.918;2024-03-02T19:16:51;25.58;;;16.95;;
67602;SDS011;54417;47.454;18.918;2024-03-02T19:22:02;28.52;;;18.00;;
67602;SDS011;54417;47.454;18.918;2024-03-02T19:27:17;22.90;;;16.35;;
67602;SDS011;54417;47.454;18.918;2024-03-02T19:32:27;26.00;;;16.95;;
67602;SDS011;54417;47.454;18.918;2024-03-02T19:37:32;25.23;;;17.05;;
67602;SDS011;54417;47.454;18.918;2024-03-02T19:42:44;22.42;;;15.25;;
67602;SDS011;54417;47.454;18.918;2024-03-02T19:47:48;22.08;;;14.85;;
67602;SDS011;54417;47.454;18.918;2024-03-02T19:52:59;29.88;;;16.58;;
67602;SDS011;54417;47.454;18.918;2024-03-02T19:58:04;27.50;;;16.80;;
67602;SDS011;54417;47.454;18.918;2024-03-02T20:03:13;26.50;;;16.27;;
67602;SDS011;54417;47.454;18.918;2024-03-02T20:08:23;21.45;;;14.13;;
67602;SDS011;54417;47.454;18.918;2024-03-02T20:13:33;23.75;;;14.77;;
67602;SDS011;54417;47.454;18.918;2024-03-02T20:18:37;23.42;;;13.13;;
67602;SDS011;54417;47.454;18.918;2024-03-02T20:23:47;20.45;;;14.00;;
67602;SDS011;54417;47.454;18.918;2024-03-02T20:28:56;22.63;;;13.90;;
67602;SDS011;54417;47.454;18.918;2024-03-02T20:34:04;20.77;;;12.27;;
67602;SDS011;54417;47.454;18.918;2024-03-02T20:39:15;24.08;;;12.93;;
67602;SDS011;54417;47.454;18.918;2024-03-02T20:44:24;22.45;;;12.82;;
67602;SDS011;54417;47.454;18.918;2024-03-02T20:49:28;18.60;;;12.18;;
67602;SDS011;54417;47.454;18.918;2024-03-02T20:54:39;20.02;;;12.93;;
67602;SDS011;54417;47.454;18.918;2024-03-02T20:59:43;20.50;;;12.60;;
67602;SDS011;54417;47.454;18.918;2024-03-02T21:04:47;27.00;;;13.93;;
67602;SDS011;54417;47.454;18.918;2024-03-02T21:09:57;18.70;;;11.48;;
67602;SDS011;54417;47.454;18.918;2024-03-02T21:15:06;19.60;;;13.48;;
67602;SDS011;54417;47.454;18.918;2024-03-02T21:20:15;24.92;;;13.70;;
67602;SDS011;54417;47.454;18.918;2024-03-02T21:25:25;24.25;;;15.13;;
67602;SDS011;54417;47.454;18.918;2024-03-02T21:30:34;19.75;;;12.63;;
67602;SDS011;54417;47.454;18.918;2024-03-02T21:35:38;23.70;;;13.05;;
67602;SDS011;54417;47.454;18.918;2024-03-02T21:40:44;18.15;;;12.43;;
67602;SDS011;54417;47.454;18.918;2024-03-02T21:45:47;19.63;;;13.35;;
67602;SDS011;54417;47.454;18.918;2024-03-02T21:50:56;21.45;;;13.25;;
67602;SDS011;54417;47.454;18.918;2024-03-02T21:56:01;27.13;;;14.70;;
67602;SDS011;54417;47.454;18.918;2024-03-02T22:01:05;26.58;;;15.23;;
67602;SDS011;54417;47.454;18.918;2024-03-02T22:06:14;24.02;;;14.13;;
67602;SDS011;54417;47.454;18.918;2024-03-02T22:11:25;21.40;;;14.20;;
67602;SDS011;54417;47.454;18.918;2024-03-02T22:16:34;21.40;;;13.68;;
67602;SDS011;54417;47.454;18.918;2024-03-02T22:21:42;21.27;;;12.93;;
67602;SDS011;54417;47.454;18.918;2024-03-02T22:26:48;21.67;;;12.93;;
67602;SDS011;54417;47.454;18.918;2024-03-02T22:31:52;25.65;;;14.98;;
67602;SDS011;54417;47.454;18.918;2024-03-02T22:36:55;22.88;;;12.52;;
67602;SDS011;54417;47.454;18.918;2024-03-02T22:42:06;20.83;;;12.73;;
67602;SDS011;54417;47.454;18.918;2024-03-02T22:47:14;21.77;;;13.13;;
67602;SDS011;54417;47.454;18.918;2024-03-02T22:52:23;20.02;;;13.15;;
67602;SDS011;54417;47.454;18.918;2024-03-02T22:57:28;19.33;;;13.15;;
67602;SDS011;54417;47.454;18.918;2024-03-02T23:02:37;19.63;;;13.77;;
67602;SDS011;54417;47.454;18.918;2024-03-02T23:07:41;23.02;;;14.30;;
67602;SDS011;54417;47.454;18.918;2024-03-02T23:12:51;25.88;;;14.60;;
67602;SDS011;54417;47.454;18.918;2024-03-02T23:18:00;20.27;;;14.25;;
67602;SDS011;54417;47.454;18.918;2024-03-02T23:23:08;25.70;;;15.60;;
67602;SDS011;54417;47.454;18.918;2024-03-02T23:28:14;34.03;;;21.35;;
67602;SDS011;54417;47.454;18.918;2024-03-02T23:33:18;23.98;;;18.02;;
67602;SDS011;54417;47.454;18.918;2024-03-02T23:38:27;32.63;;;18.80;;
67602;SDS011;54417;47.454;18.918;2024-03-02T23:43:38;28.73;;;17.02;;
67602;SDS011;54417;47.454;18.918;2024-03-02T23:48:41;28.88;;;16.98;;
67602;SDS011;54417;47.454;18.918;2024-03-02T23:53:45;27.80;;;17.08;;
67602;SDS011;54417;47.454;18.918;2024-03-02T23:58:55;26.30;;;16.60;;
